createdAt,value
2023-01-11T00:02:00.976Z,100560.50
2023-01-11T00:04:30.300Z,100543.19
2023-01-11T00:06:57.524Z,100542.91
2023-01-11T00:09:24.152Z,100539.63
2023-01-11T00:11:50.608Z,100551.44
2023-01-11T00:14:17.107Z,100543.19
2023-01-11T00:16:43.645Z,100535.88
2023-01-11T00:19:10.189Z,100543.19
2023-01-11T00:21:36.743Z,100532.84
2023-01-11T00:24:03.395Z,100530.78
2023-01-11T00:26:29.905Z,100521.97
2023-01-11T00:28:56.512Z,100534.84
2023-01-11T00:31:23.020Z,100529.88
2023-01-11T00:33:49.646Z,100516.25
2023-01-11T00:36:16.201Z,100516.06
2023-01-11T00:38:51.670Z,100516.63
2023-01-11T00:41:38.650Z,100502.88
2023-01-11T00:44:24.365Z,100510.63
2023-01-11T00:47:10.292Z,100498.81
2023-01-11T00:49:36.838Z,100494.91
2023-01-11T00:52:08.619Z,100490.19
2023-01-11T00:54:39.713Z,100501.47
2023-01-11T00:57:07.510Z,100500.09
2023-01-11T00:59:34.964Z,100481.50
2023-01-11T01:02:01.600Z,100479.63
2023-01-11T01:04:28.153Z,100479.44
2023-01-11T01:06:54.893Z,100484.19
2023-01-11T01:09:21.841Z,100485.63
2023-01-11T01:11:48.389Z,100487.81
2023-01-11T01:14:31.020Z,100483.75
2023-01-11T01:17:02.292Z,100484.97
2023-01-11T01:19:30.438Z,100479.97
2023-01-11T01:21:58.829Z,100491.88
2023-01-11T01:24:28.735Z,100486.34
2023-01-11T01:26:56.082Z,100488.03
2023-01-11T01:29:23.024Z,100480.28
2023-01-11T01:31:49.579Z,100485.75
2023-01-11T01:34:16.769Z,100483.66
2023-01-11T01:36:43.585Z,100486.88
2023-01-11T01:39:11.219Z,100491.69
2023-01-11T01:41:37.783Z,100483.00
2023-01-11T01:44:25.372Z,100488.34
2023-01-11T01:46:51.987Z,100487.34
2023-01-11T01:49:18.681Z,100492.53
2023-01-11T01:51:51.596Z,100484.72
2023-01-11T01:54:25.892Z,100483.44
2023-01-11T01:56:58.532Z,100484.41
2023-01-11T01:59:28.073Z,100484.19
2023-01-11T02:01:54.973Z,100482.50
2023-01-11T02:04:52.937Z,100474.63
2023-01-11T02:07:22.527Z,100476.78
2023-01-11T02:09:49.025Z,100478.22
2023-01-11T02:12:16.205Z,100468.97
2023-01-11T02:14:44.667Z,100464.69
2023-01-11T02:17:11.891Z,100461.53
2023-01-11T02:19:51.229Z,100459.94
2023-01-11T02:22:55.106Z,100447.59
2023-01-11T02:25:59.640Z,100450.16
2023-01-11T02:28:51.266Z,100440.53
2023-01-11T02:31:36.053Z,100435.75
2023-01-11T02:34:23.918Z,100426.28
2023-01-11T02:36:58.686Z,100425.72
2023-01-11T02:39:45.997Z,100420.97
2023-01-11T02:42:39.592Z,100425.03
2023-01-11T02:45:43.783Z,100424.03
2023-01-11T02:48:17.770Z,100425.56
2023-01-11T02:50:53.622Z,100429.56
2023-01-11T02:53:25.157Z,100423.38
2023-01-11T02:55:58.379Z,100417.25
2023-01-11T02:58:29.725Z,100423.78
2023-01-11T03:00:58.442Z,100412.69
2023-01-11T03:03:27.739Z,100399.72
2023-01-11T03:05:59.048Z,100397.94
2023-01-11T03:08:46.820Z,100389.97
2023-01-11T03:11:52.525Z,100385.81
2023-01-11T03:14:36.261Z,100381.59
2023-01-11T03:17:20.050Z,100382.28
2023-01-11T03:19:52.943Z,100382.97
2023-01-11T03:22:37.665Z,100373.09
2023-01-11T03:25:45.422Z,100364.56
2023-01-11T03:28:22.354Z,100352.25
2023-01-11T03:31:01.377Z,100348.06
2023-01-11T03:33:43.411Z,100358.88
2023-01-11T03:36:22.915Z,100353.44
2023-01-11T03:38:55.817Z,100351.31
2023-01-11T03:41:29.224Z,100342.47
2023-01-11T03:44:01.270Z,100342.53
2023-01-11T03:46:32.784Z,100345.84
2023-01-11T03:49:07.908Z,100350.91
2023-01-11T03:51:40.440Z,100353.09
2023-01-11T03:54:08.392Z,100352.63
2023-01-11T03:57:03.944Z,100339.44
2023-01-11T03:59:30.839Z,100342.38
2023-01-11T04:01:57.974Z,100328.16
2023-01-11T04:04:24.600Z,100336.22
2023-01-11T04:06:51.373Z,100323.34
2023-01-11T04:09:17.919Z,100324.13
2023-01-11T04:11:44.916Z,100316.34
2023-01-11T04:14:11.402Z,100319.16
2023-01-11T04:16:38.052Z,100308.19
2023-01-11T04:19:04.601Z,100312.56
2023-01-11T04:21:31.137Z,100312.75
2023-01-11T04:23:57.604Z,100301.31
2023-01-11T04:26:24.084Z,100293.56
2023-01-11T04:28:52.799Z,100290.75
2023-01-11T04:31:20.675Z,100292.84
2023-01-11T04:33:47.191Z,100292.28
2023-01-11T04:36:13.833Z,100284.06
2023-01-11T04:38:40.350Z,100279.31
2023-01-11T04:41:25.277Z,100271.81
2023-01-11T04:43:56.331Z,100276.66
2023-01-11T04:46:24.262Z,100277.66
2023-01-11T04:48:51.362Z,100277.31
2023-01-11T04:51:18.268Z,100272.50
2023-01-11T04:53:48.038Z,100284.47
2023-01-11T04:56:15.766Z,100280.19
2023-01-11T04:58:42.310Z,100280.88
2023-01-11T05:01:15.241Z,100283.69
2023-01-11T05:03:41.989Z,100279.84
2023-01-11T05:06:08.864Z,100270.28
2023-01-11T05:08:35.685Z,100267.19
2023-01-11T05:11:05.239Z,100263.47
2023-01-11T05:13:44.195Z,100252.16
2023-01-11T05:16:21.114Z,100252.78
2023-01-11T05:18:53.136Z,100253.06
2023-01-11T05:21:22.610Z,100252.38
2023-01-11T05:23:49.201Z,100255.31
2023-01-11T05:26:18.367Z,100248.84
2023-01-11T05:28:46.616Z,100252.81
2023-01-11T05:31:13.502Z,100235.91
2023-01-11T05:33:40.173Z,100241.63
2023-01-11T05:36:10.441Z,100229.19
2023-01-11T05:38:36.954Z,100236.59
2023-01-11T05:41:06.207Z,100240.06
2023-01-11T05:43:34.095Z,100231.25
2023-01-11T05:46:00.969Z,100226.72
2023-01-11T05:48:27.904Z,100225.94
2023-01-11T05:50:55.729Z,100235.13
2023-01-11T05:53:24.019Z,100225.44
2023-01-11T05:55:54.462Z,100208.78
2023-01-11T05:58:22.239Z,100218.13
2023-01-11T06:00:54.426Z,100212.56
2023-01-11T06:03:22.129Z,100208.00
2023-01-11T06:05:48.950Z,100209.91
2023-01-11T06:08:15.892Z,100212.56
2023-01-11T06:10:42.931Z,100210.78
2023-01-11T06:13:27.893Z,100211.22
2023-01-11T06:15:58.190Z,100216.28
2023-01-11T06:18:24.735Z,100211.66
2023-01-11T06:20:52.740Z,100211.38
2023-01-11T06:23:19.805Z,100204.03
2023-01-11T06:25:46.347Z,100195.19
2023-01-11T06:28:13.686Z,100201.53
2023-01-11T06:30:40.461Z,100191.19
2023-01-11T06:33:07.392Z,100185.53
2023-01-11T06:35:38.664Z,100181.97
2023-01-11T06:38:06.168Z,100187.59
2023-01-11T06:40:32.947Z,100178.53
2023-01-11T06:42:59.445Z,100181.84
2023-01-11T06:45:25.941Z,100184.63
2023-01-11T06:47:52.438Z,100180.88
2023-01-11T06:50:19.057Z,100178.38
2023-01-11T06:52:59.510Z,100175.59
2023-01-11T06:55:27.983Z,100185.25
2023-01-11T06:57:55.018Z,100179.03
2023-01-11T07:00:22.001Z,100178.28
2023-01-11T07:02:48.914Z,100170.16
2023-01-11T07:05:18.879Z,100169.38
2023-01-11T07:07:45.855Z,100175.53
2023-01-11T07:10:15.673Z,100178.72
2023-01-11T07:12:42.512Z,100175.53
2023-01-11T07:15:10.175Z,100174.09
2023-01-11T07:17:37.063Z,100167.22
2023-01-11T07:20:05.237Z,100165.44
2023-01-11T07:22:36.127Z,100166.88
2023-01-11T07:25:04.800Z,100172.13
2023-01-11T07:27:31.635Z,100173.84
2023-01-11T07:30:01.367Z,100172.09
2023-01-11T07:32:28.515Z,100173.25
2023-01-11T07:34:55.912Z,100184.84
2023-01-11T07:37:28.447Z,100193.28
2023-01-11T07:39:55.995Z,100192.59
2023-01-11T07:42:42.025Z,100190.03
2023-01-11T07:45:08.995Z,100182.66
2023-01-11T07:47:35.485Z,100187.63
2023-01-11T07:50:02.028Z,100182.34
2023-01-11T07:52:28.505Z,100175.44
2023-01-11T07:54:55.129Z,100190.75
2023-01-11T07:57:21.581Z,100184.13
2023-01-11T07:59:48.100Z,100186.16
2023-01-11T08:02:14.639Z,100185.91
2023-01-11T08:04:41.126Z,100184.97
2023-01-11T08:07:07.600Z,100187.63
2023-01-11T08:09:34.144Z,100189.56
2023-01-11T08:12:19.051Z,100178.47
2023-01-11T08:14:45.699Z,100173.41
2023-01-11T08:17:15.050Z,100171.97
2023-01-11T08:19:42.480Z,100181.50
2023-01-11T08:22:10.088Z,100194.13
2023-01-11T08:24:36.707Z,100185.34
2023-01-11T08:27:04.312Z,100167.06
2023-01-11T08:29:31.272Z,100165.53
2023-01-11T08:31:59.272Z,100165.25
2023-01-11T08:34:27.589Z,100160.66
2023-01-11T08:36:54.248Z,100156.56
2023-01-11T08:39:20.921Z,100154.66
2023-01-11T08:41:47.453Z,100159.75
2023-01-11T08:44:14.974Z,100162.19
2023-01-11T08:46:41.684Z,100157.44
2023-01-11T08:49:12.032Z,100171.84
2023-01-11T08:51:42.175Z,100176.63
2023-01-11T08:54:14.053Z,100170.88
2023-01-11T08:56:40.841Z,100174.41
2023-01-11T08:59:07.351Z,100180.13
2023-01-11T09:01:33.873Z,100179.00
2023-01-11T09:04:01.459Z,100180.59
2023-01-11T09:06:28.867Z,100182.94
2023-01-11T09:08:55.383Z,100181.22
2023-01-11T09:11:40.783Z,100172.19
2023-01-11T09:14:07.315Z,100170.22
2023-01-11T09:16:34.128Z,100170.91
2023-01-11T09:19:00.728Z,100174.41
2023-01-11T09:21:27.364Z,100173.88
2023-01-11T09:23:53.871Z,100166.53
2023-01-11T09:26:20.409Z,100170.22
2023-01-11T09:28:47.000Z,100177.94
2023-01-11T09:31:13.536Z,100174.78
2023-01-11T09:33:45.351Z,100173.34
2023-01-11T09:36:21.576Z,100178.38
2023-01-11T09:38:50.286Z,100178.81
2023-01-11T09:41:34.490Z,100180.97
2023-01-11T09:44:16.278Z,100180.19
2023-01-11T09:46:51.359Z,100183.69
2023-01-11T09:49:27.912Z,100180.19
2023-01-11T09:52:13.080Z,100194.03
2023-01-11T09:54:39.893Z,100186.91
2023-01-11T09:57:26.613Z,100176.09
2023-01-11T10:00:06.733Z,100187.72
2023-01-11T10:03:05.101Z,100183.94
2023-01-11T10:05:40.923Z,100185.22
2023-01-11T10:18:29.664Z,100176.00
2023-01-11T10:18:32.375Z,100179.94
2023-01-11T10:21:04.891Z,100174.03
2023-01-11T10:23:40.919Z,100182.16
2023-01-11T10:26:24.094Z,100177.59
2023-01-11T10:29:33.681Z,100176.41
2023-01-11T10:32:22.160Z,100167.94
2023-01-11T10:34:59.797Z,100179.06
2023-01-11T10:38:05.819Z,100180.88
2023-01-11T10:41:04.602Z,100178.25
2023-01-11T10:43:39.644Z,100181.28
2023-01-11T10:46:19.046Z,100181.88
2023-01-11T10:48:47.069Z,100182.47
2023-01-11T10:51:29.206Z,100192.34
2023-01-11T10:54:14.053Z,100196.47
2023-01-11T10:57:14.001Z,100197.78
2023-01-11T10:59:59.292Z,100204.16
2023-01-11T11:02:53.943Z,100212.91
2023-01-11T11:05:35.674Z,100214.22
2023-01-11T11:08:07.134Z,100212.78
2023-01-11T11:10:54.867Z,100201.66
2023-01-11T11:13:46.595Z,100204.28
2023-01-11T11:16:22.369Z,100205.25
2023-01-11T11:18:51.121Z,100184.78
2023-01-11T11:21:26.470Z,100176.94
2023-01-11T11:24:00.721Z,100180.03
2023-01-11T11:26:41.581Z,100160.75
2023-01-11T11:29:10.799Z,100164.63
2023-01-11T11:31:42.897Z,100170.78
2023-01-11T11:34:17.704Z,100173.22
2023-01-11T11:36:46.993Z,100179.44
2023-01-11T11:39:29.157Z,100165.75
2023-01-11T11:42:03.839Z,100172.91
2023-01-11T11:44:30.346Z,100165.09
2023-01-11T11:47:01.966Z,100170.19
2023-01-11T11:49:31.492Z,100155.72
2023-01-11T11:52:00.569Z,100157.53
2023-01-11T11:54:30.823Z,100159.97
2023-01-11T11:57:00.126Z,100157.19
2023-01-11T11:59:30.311Z,100154.66
2023-01-11T12:02:03.557Z,100164.03
2023-01-11T12:04:58.075Z,100168.34
2023-01-11T12:07:28.213Z,100182.69
2023-01-11T12:09:59.955Z,100182.19
2023-01-11T12:12:29.327Z,100175.41
2023-01-11T12:15:23.276Z,100185.25
2023-01-11T12:18:21.210Z,100185.41
2023-01-11T12:20:47.811Z,100184.34
2023-01-11T12:23:18.732Z,100185.97
2023-01-11T12:26:23.020Z,100192.31
2023-01-11T12:29:04.783Z,100184.69
2023-01-11T12:32:13.124Z,100181.50
2023-01-11T12:34:52.842Z,100183.50
2023-01-11T12:37:40.593Z,100175.22
2023-01-11T12:40:34.637Z,100175.31
2023-01-11T12:43:24.215Z,100167.56
2023-01-11T12:46:16.438Z,100180.50
2023-01-11T12:48:57.936Z,100172.81
2023-01-11T12:52:00.591Z,100182.09
2023-01-11T12:55:01.791Z,100178.53
2023-01-11T12:58:07.879Z,100183.03
2023-01-11T13:00:59.101Z,100192.69
2023-01-11T13:03:49.234Z,100204.75
2023-01-11T13:06:36.985Z,100204.97
2023-01-11T13:09:20.611Z,100217.09
2023-01-11T13:11:57.545Z,100212.69
2023-01-11T13:14:41.907Z,100222.97
2023-01-11T13:17:30.001Z,100211.13
2023-01-11T13:20:11.538Z,100213.94
2023-01-11T13:22:46.794Z,100213.56
2023-01-11T13:25:36.524Z,100201.09
2023-01-11T13:28:24.391Z,100199.72
2023-01-11T13:30:51.720Z,100201.38
2023-01-11T13:33:22.696Z,100210.69
2023-01-11T13:35:54.954Z,100215.59
2023-01-11T13:38:34.837Z,100209.41
2023-01-11T13:41:19.316Z,100215.03
2023-01-11T13:44:03.933Z,100210.28
2023-01-11T13:46:56.582Z,100208.81
2023-01-11T13:49:42.502Z,100216.69
2023-01-11T13:52:18.377Z,100215.78
2023-01-11T13:54:56.730Z,100235.94
2023-01-11T13:57:47.901Z,100240.13
2023-01-11T14:00:22.328Z,100237.13
2023-01-11T14:02:57.490Z,100248.06
2023-01-11T14:05:27.924Z,100247.44
2023-01-11T14:08:01.793Z,100249.63
2023-01-11T14:10:41.182Z,100258.50
2023-01-11T14:13:51.793Z,100265.47
2023-01-11T14:16:40.552Z,100261.16
2023-01-11T14:19:29.589Z,100266.56
2023-01-11T14:22:12.915Z,100263.91
2023-01-11T14:24:47.392Z,100266.34
2023-01-11T14:27:31.623Z,100276.22
2023-01-11T14:30:06.684Z,100288.69
2023-01-11T14:32:45.700Z,100274.41
2023-01-11T14:35:34.242Z,100279.22
2023-01-11T14:38:25.096Z,100287.88
2023-01-11T14:41:18.403Z,100297.63
2023-01-11T14:44:04.611Z,100306.78
2023-01-11T14:46:41.020Z,100316.44
2023-01-11T14:49:20.390Z,100316.66
2023-01-11T14:52:07.548Z,100329.91
2023-01-11T14:54:47.778Z,100336.97
2023-01-11T14:57:43.525Z,100343.88
2023-01-11T15:00:18.667Z,100347.91
2023-01-11T15:02:46.336Z,100349.97
2023-01-11T15:05:31.356Z,100365.19
2023-01-11T15:08:13.148Z,100377.97
2023-01-11T15:10:47.330Z,100374.19
2023-01-11T15:13:36.330Z,100385.09
2023-01-11T15:16:35.551Z,100388.16
2023-01-11T15:19:07.403Z,100389.75
2023-01-11T15:21:40.945Z,100393.56
2023-01-11T15:24:22.426Z,100387.91
2023-01-11T15:26:50.064Z,100404.78
2023-01-11T15:29:29.543Z,100398.28
2023-01-11T15:32:02.116Z,100401.78
2023-01-11T15:34:56.627Z,100411.13
2023-01-11T15:37:44.623Z,100409.66
2023-01-11T15:40:16.823Z,100416.78
2023-01-11T15:43:25.771Z,100418.63
2023-01-11T15:46:31.804Z,100419.56
2023-01-11T15:49:21.734Z,100438.44
2023-01-11T15:52:07.229Z,100436.31
2023-01-11T15:54:49.905Z,100437.50
2023-01-11T15:57:34.913Z,100439.84
2023-01-11T16:00:32.109Z,100439.22
2023-01-11T16:03:20.429Z,100439.97
2023-01-11T16:06:26.071Z,100435.31
2023-01-11T16:09:07.435Z,100440.97
2023-01-11T16:11:47.634Z,100441.47
2023-01-11T16:14:33.592Z,100436.91
2023-01-11T16:17:00.799Z,100447.47
2023-01-11T16:19:36.474Z,100454.56
2023-01-11T16:22:05.470Z,100461.22
2023-01-11T16:24:44.839Z,100456.03
2023-01-11T16:27:23.773Z,100448.63
2023-01-11T16:29:51.393Z,100448.31
2023-01-11T16:32:26.849Z,100454.94
2023-01-11T16:34:55.094Z,100452.81
2023-01-11T16:37:38.732Z,100465.91
2023-01-11T16:40:16.378Z,100471.53
2023-01-11T16:42:49.147Z,100484.06
2023-01-11T16:45:24.058Z,100482.47
2023-01-11T16:48:03.776Z,100484.91
2023-01-11T16:50:30.714Z,100484.56
2023-01-11T16:52:59.583Z,100494.22
2023-01-11T16:55:37.617Z,100484.41
2023-01-11T16:58:26.155Z,100489.50
2023-01-11T17:01:05.472Z,100496.00
2023-01-11T17:03:34.577Z,100500.38
2023-01-11T18:03:20.662Z,100577.59
2023-01-11T18:05:49.313Z,100583.88
2023-01-11T18:08:22.090Z,100591.03
2023-01-11T18:10:59.116Z,100590.38
2023-01-11T18:13:39.040Z,100599.63
2023-01-11T18:16:13.481Z,100600.09
2023-01-11T18:18:52.678Z,100612.84
2023-01-11T18:21:54.743Z,100617.19
2023-01-11T18:24:45.491Z,100627.41
2023-01-11T18:27:32.453Z,100624.56
2023-01-11T18:30:09.633Z,100633.25
2023-01-11T18:32:42.911Z,100643.38
2023-01-11T18:35:18.916Z,100631.81
2023-01-11T18:37:50.538Z,100636.63
2023-01-11T18:40:24.370Z,100637.97
2023-01-11T18:42:57.945Z,100638.31
2023-01-11T18:53:27.145Z,100648.72
2023-01-11T18:55:57.837Z,100640.09
2023-01-11T18:58:24.606Z,100629.56
2023-01-11T19:00:51.150Z,100637.56
2023-01-11T19:03:17.871Z,100647.53
2023-01-11T19:05:44.568Z,100634.59
2023-01-11T19:08:13.328Z,100640.13
2023-01-11T19:10:42.840Z,100636.94
2023-01-11T19:13:10.636Z,100658.72
2023-01-11T19:15:40.652Z,100655.38
2023-01-11T19:18:11.769Z,100663.38
2023-01-11T19:23:44.225Z,100683.78
2023-01-11T19:26:14.349Z,100678.31
2023-01-11T19:28:52.231Z,100688.50
2023-01-11T19:31:22.694Z,100699.72
2023-01-11T19:34:01.321Z,100698.19
2023-01-11T19:36:36.576Z,100693.91
2023-01-11T19:39:15.633Z,100698.13
2023-01-11T19:42:07.066Z,100678.81
2023-01-11T19:44:47.688Z,100690.31
2023-01-11T19:47:44.624Z,100697.06
2023-01-11T19:50:19.506Z,100683.78
2023-01-11T19:52:53.211Z,100687.47
2023-01-11T19:55:44.248Z,100686.09
2023-01-11T19:58:18.643Z,100687.81
2023-01-11T20:00:54.805Z,100685.78
2023-01-11T20:03:28.036Z,100675.31
2023-01-11T20:06:09.420Z,100684.34
2023-01-11T20:08:43.160Z,100680.88
2023-01-11T20:11:23.323Z,100681.53
2023-01-11T20:13:56.175Z,100673.78
2023-01-11T20:16:33.732Z,100673.91
2023-01-11T20:19:05.421Z,100668.84
2023-01-11T20:21:36.192Z,100668.31
2023-01-11T20:24:13.761Z,100665.88
2023-01-11T20:26:45.343Z,100666.03
2023-01-11T20:29:17.308Z,100674.03
2023-01-11T20:31:46.686Z,100680.06
2023-01-11T20:34:18.548Z,100683.69
2023-01-11T20:36:58.825Z,100676.72
2023-01-11T20:39:40.402Z,100685.00
2023-01-11T20:42:13.737Z,100688.19
2023-01-11T20:44:45.330Z,100689.84
2023-01-11T20:47:13.847Z,100677.53
2023-01-11T20:49:40.751Z,100676.59
2023-01-11T20:52:08.128Z,100667.53
2023-01-11T20:54:35.711Z,100664.16
2023-01-11T20:57:14.927Z,100650.28
2023-01-11T20:59:43.426Z,100651.72
2023-01-11T21:02:13.834Z,100657.25
2023-01-11T21:04:45.773Z,100637.56
2023-01-11T21:07:13.748Z,100641.53
2023-01-11T21:09:40.925Z,100640.81
2023-01-11T21:12:10.389Z,100635.50
2023-01-11T21:14:37.288Z,100635.34
2023-01-11T21:17:03.802Z,100636.25
2023-01-11T21:19:32.386Z,100637.56
2023-01-11T21:22:04.747Z,100649.78
2023-01-11T21:24:32.101Z,100643.94
2023-01-11T21:26:58.751Z,100644.72
2023-01-11T21:29:32.267Z,100647.16
2023-01-11T21:31:59.188Z,100646.03
2023-01-11T21:34:26.045Z,100636.53
2023-01-11T21:36:57.645Z,100631.19
2023-01-11T21:39:45.536Z,100632.94
2023-01-11T21:42:18.000Z,100628.97
2023-01-11T21:44:49.675Z,100629.84
2023-01-11T21:47:25.663Z,100626.09
2023-01-11T21:49:55.521Z,100621.25
2023-01-11T21:52:22.527Z,100624.47
2023-01-11T21:54:50.379Z,100628.63
2023-01-11T21:57:17.120Z,100630.56
2023-01-11T21:59:43.758Z,100628.25
2023-01-11T22:02:11.624Z,100617.06
2023-01-11T22:04:38.527Z,100629.59
2023-01-11T22:07:05.180Z,100626.41
2023-01-11T22:09:33.266Z,100632.22
2023-01-11T22:12:00.674Z,100642.13
2023-01-11T22:14:30.337Z,100644.56
2023-01-11T22:16:57.157Z,100649.59
2023-01-11T22:19:24.042Z,100654.19
2023-01-11T22:21:50.756Z,100651.31
2023-01-11T22:24:17.819Z,100655.47
2023-01-11T22:26:45.077Z,100655.72
2023-01-11T22:29:11.909Z,100660.59
2023-01-11T22:31:40.607Z,100663.00
2023-01-11T22:34:07.651Z,100649.41
2023-01-11T22:36:34.206Z,100645.16
2023-01-11T22:39:01.244Z,100641.88
2023-01-11T22:41:27.854Z,100642.94
2023-01-11T22:43:55.295Z,100630.75
2023-01-11T22:46:24.395Z,100632.59
2023-01-11T22:48:51.775Z,100630.22
2023-01-11T22:51:22.269Z,100637.47
2023-01-11T22:53:51.031Z,100639.75
2023-01-11T22:56:20.052Z,100645.72
2023-01-11T22:58:47.133Z,100646.63
2023-01-11T23:01:16.755Z,100654.59
2023-01-11T23:03:45.083Z,100651.31
2023-01-11T23:06:12.862Z,100639.13
2023-01-11T23:08:41.793Z,100635.44
2023-01-11T23:11:14.774Z,100636.31
2023-01-11T23:13:55.166Z,100633.94
2023-01-11T23:16:24.317Z,100635.84
2023-01-11T23:18:51.095Z,100629.84
2023-01-11T23:21:21.427Z,100619.81
2023-01-11T23:23:54.148Z,100626.25
2023-01-11T23:26:21.868Z,100620.25
2023-01-11T23:31:37.101Z,100610.00
2023-01-11T23:34:06.980Z,100601.88
2023-01-11T23:36:36.044Z,100606.53
2023-01-11T23:39:04.100Z,100612.06
2023-01-11T23:41:49.544Z,100608.50
2023-01-11T23:44:17.583Z,100599.28
2023-01-11T23:47:04.042Z,100608.41
2023-01-11T23:49:31.814Z,100598.00
2023-01-11T23:52:04.696Z,100607.75
2023-01-11T23:54:33.978Z,100593.94
2023-01-11T23:57:02.364Z,100594.50
2023-01-11T23:59:29.944Z,100588.31
